sensor_id;sensor_type;location;lat;lon;timestamp;temperature;humidity
9820;DHT22;4949;48.482;9.206;2023-02-01T00:02:51;4.80;72.90
9820;DHT22;4949;48.482;9.206;2023-02-01T00:07:52;4.80;73.80
9820;DHT22;4949;48.482;9.206;2023-02-01T00:12:53;4.90;74.10
9820;DHT22;4949;48.482;9.206;2023-02-01T00:17:55;4.80;74.70
9820;DHT22;4949;48.482;9.206;2023-02-01T00:22:58;4.80;75.10
9820;DHT22;4949;48.482;9.206;2023-02-01T00:27:59;4.90;75.10
9820;DHT22;4949;48.482;9.206;2023-02-01T00:33:02;4.90;75.60
9820;DHT22;4949;48.482;9.206;2023-02-01T00:38:02;4.90;74.90
9820;DHT22;4949;48.482;9.206;2023-02-01T00:43:03;4.90;75.00
9820;DHT22;4949;48.482;9.206;2023-02-01T00:48:04;4.90;75.00
9820;DHT22;4949;48.482;9.206;2023-02-01T00:53:05;4.90;75.20
9820;DHT22;4949;48.482;9.206;2023-02-01T00:58:06;4.90;75.10
9820;DHT22;4949;48.482;9.206;2023-02-01T01:03:09;4.80;75.40
9820;DHT22;4949;48.482;9.206;2023-02-01T01:08:19;4.80;75.30
9820;DHT22;4949;48.482;9.206;2023-02-01T01:13:22;4.80;75.40
9820;DHT22;4949;48.482;9.206;2023-02-01T01:18:25;4.80;75.30
9820;DHT22;4949;48.482;9.206;2023-02-01T01:23:26;4.90;75.40
9820;DHT22;4949;48.482;9.206;2023-02-01T01:28:27;4.90;75.70
9820;DHT22;4949;48.482;9.206;2023-02-01T01:33:30;4.90;75.50
9820;DHT22;4949;48.482;9.206;2023-02-01T01:38:31;5.10;75.80
9820;DHT22;4949;48.482;9.206;2023-02-01T01:43:50;5.10;75.10
9820;DHT22;4949;48.482;9.206;2023-02-01T01:49:08;5.10;75.50
9820;DHT22;4949;48.482;9.206;2023-02-01T01:54:21;5.00;75.40
9820;DHT22;4949;48.482;9.206;2023-02-01T01:59:25;5.20;76.10
9820;DHT22;4949;48.482;9.206;2023-02-01T02:04:26;5.00;76.30
9820;DHT22;4949;48.482;9.206;2023-02-01T02:09:27;5.00;77.00
9820;DHT22;4949;48.482;9.206;2023-02-01T02:14:28;5.00;76.90
9820;DHT22;4949;48.482;9.206;2023-02-01T02:24:58;5.00;76.70
9820;DHT22;4949;48.482;9.206;2023-02-01T02:46:20;5.10;76.70
9820;DHT22;4949;48.482;9.206;2023-02-01T02:57:28;5.20;76.30
9820;DHT22;4949;48.482;9.206;2023-02-01T03:02:49;5.20;76.60
9820;DHT22;4949;48.482;9.206;2023-02-01T03:08:14;5.10;77.30
9820;DHT22;4949;48.482;9.206;2023-02-01T03:23:49;5.10;78.10
9820;DHT22;4949;48.482;9.206;2023-02-01T03:29:08;5.00;78.30
9820;DHT22;4949;48.482;9.206;2023-02-01T03:34:11;5.00;77.70
9820;DHT22;4949;48.482;9.206;2023-02-01T03:39:25;5.00;77.60
9820;DHT22;4949;48.482;9.206;2023-02-01T03:44:49;5.00;77.70
9820;DHT22;4949;48.482;9.206;2023-02-01T03:50:00;5.00;77.70
9820;DHT22;4949;48.482;9.206;2023-02-01T03:55:06;5.20;77.10
9820;DHT22;4949;48.482;9.206;2023-02-01T04:00:28;5.00;77.70
9820;DHT22;4949;48.482;9.206;2023-02-01T04:05:31;5.00;77.70
9820;DHT22;4949;48.482;9.206;2023-02-01T04:10:32;5.00;77.50
9820;DHT22;4949;48.482;9.206;2023-02-01T04:15:36;5.00;77.70
9820;DHT22;4949;48.482;9.206;2023-02-01T04:20:39;5.00;77.50
9820;DHT22;4949;48.482;9.206;2023-02-01T04:25:39;5.00;77.70
9820;DHT22;4949;48.482;9.206;2023-02-01T04:30:40;4.90;77.80
9820;DHT22;4949;48.482;9.206;2023-02-01T04:35:43;4.90;77.80
9820;DHT22;4949;48.482;9.206;2023-02-01T04:40:47;4.90;77.40
9820;DHT22;4949;48.482;9.206;2023-02-01T04:45:51;4.90;77.50
9820;DHT22;4949;48.482;9.206;2023-02-01T04:50:52;4.80;77.90
9820;DHT22;4949;48.482;9.206;2023-02-01T04:55:55;4.80;77.80
9820;DHT22;4949;48.482;9.206;2023-02-01T05:01:05;4.90;77.70
9820;DHT22;4949;48.482;9.206;2023-02-01T05:06:09;4.80;77.40
9820;DHT22;4949;48.482;9.206;2023-02-01T05:11:12;4.90;77.10
9820;DHT22;4949;48.482;9.206;2023-02-01T05:16:32;5.00;77.00
9820;DHT22;4949;48.482;9.206;2023-02-01T05:21:37;5.00;76.20
9820;DHT22;4949;48.482;9.206;2023-02-01T05:26:40;5.00;76.40
9820;DHT22;4949;48.482;9.206;2023-02-01T05:31:41;5.00;76.20
9820;DHT22;4949;48.482;9.206;2023-02-01T05:36:44;5.00;76.20
9820;DHT22;4949;48.482;9.206;2023-02-01T05:41:45;5.00;75.90
9820;DHT22;4949;48.482;9.206;2023-02-01T05:46:45;5.10;75.70
9820;DHT22;4949;48.482;9.206;2023-02-01T05:51:46;5.10;75.30
9820;DHT22;4949;48.482;9.206;2023-02-01T05:56:47;5.10;75.10
9820;DHT22;4949;48.482;9.206;2023-02-01T06:01:48;5.20;74.60
9820;DHT22;4949;48.482;9.206;2023-02-01T06:06:51;5.20;75.10
9820;DHT22;4949;48.482;9.206;2023-02-01T06:11:51;5.20;74.30
9820;DHT22;4949;48.482;9.206;2023-02-01T06:16:55;5.20;74.00
9820;DHT22;4949;48.482;9.206;2023-02-01T06:21:58;5.20;74.30
9820;DHT22;4949;48.482;9.206;2023-02-01T06:27:01;5.20;73.70
9820;DHT22;4949;48.482;9.206;2023-02-01T06:32:02;5.30;73.40
9820;DHT22;4949;48.482;9.206;2023-02-01T06:37:05;5.30;73.20
9820;DHT22;4949;48.482;9.206;2023-02-01T06:42:08;5.30;73.80
9820;DHT22;4949;48.482;9.206;2023-02-01T06:47:12;5.20;76.40
9820;DHT22;4949;48.482;9.206;2023-02-01T06:52:16;5.10;78.00
9820;DHT22;4949;48.482;9.206;2023-02-01T06:57:21;5.00;78.20
9820;DHT22;4949;48.482;9.206;2023-02-01T07:02:22;5.00;78.10
9820;DHT22;4949;48.482;9.206;2023-02-01T07:07:22;5.10;77.90
9820;DHT22;4949;48.482;9.206;2023-02-01T07:12:23;5.10;77.50
9820;DHT22;4949;48.482;9.206;2023-02-01T07:17:24;5.10;76.40
9820;DHT22;4949;48.482;9.206;2023-02-01T07:22:25;5.10;76.90
9820;DHT22;4949;48.482;9.206;2023-02-01T07:27:26;5.00;78.20
9820;DHT22;4949;48.482;9.206;2023-02-01T07:32:28;5.00;78.10
9820;DHT22;4949;48.482;9.206;2023-02-01T07:37:29;5.00;78.30
9820;DHT22;4949;48.482;9.206;2023-02-01T07:42:31;5.10;78.20
9820;DHT22;4949;48.482;9.206;2023-02-01T07:47:31;5.00;78.90
9820;DHT22;4949;48.482;9.206;2023-02-01T07:52:34;5.20;78.50
9820;DHT22;4949;48.482;9.206;2023-02-01T07:57:35;5.00;78.10
9820;DHT22;4949;48.482;9.206;2023-02-01T08:02:36;5.00;77.50
9820;DHT22;4949;48.482;9.206;2023-02-01T08:07:36;5.00;77.10
9820;DHT22;4949;48.482;9.206;2023-02-01T08:12:43;5.10;77.00
9820;DHT22;4949;48.482;9.206;2023-02-01T08:18:05;5.10;76.40
9820;DHT22;4949;48.482;9.206;2023-02-01T08:23:08;5.10;75.70
9820;DHT22;4949;48.482;9.206;2023-02-01T08:28:12;5.40;75.10
9820;DHT22;4949;48.482;9.206;2023-02-01T08:33:17;5.30;74.20
9820;DHT22;4949;48.482;9.206;2023-02-01T08:38:18;5.20;75.10
9820;DHT22;4949;48.482;9.206;2023-02-01T08:43:19;5.20;75.80
9820;DHT22;4949;48.482;9.206;2023-02-01T08:48:20;5.30;74.80
9820;DHT22;4949;48.482;9.206;2023-02-01T08:53:23;5.30;75.70
9820;DHT22;4949;48.482;9.206;2023-02-01T08:58:26;5.30;75.50
9820;DHT22;4949;48.482;9.206;2023-02-01T09:03:26;5.40;74.30
9820;DHT22;4949;48.482;9.206;2023-02-01T09:08:27;5.30;74.90
9820;DHT22;4949;48.482;9.206;2023-02-01T09:13:28;5.60;73.30
9820;DHT22;4949;48.482;9.206;2023-02-01T09:18:29;5.50;73.10
9820;DHT22;4949;48.482;9.206;2023-02-01T09:23:33;5.50;72.80
9820;DHT22;4949;48.482;9.206;2023-02-01T09:28:36;5.40;72.70
9820;DHT22;4949;48.482;9.206;2023-02-01T09:33:37;5.40;72.30
9820;DHT22;4949;48.482;9.206;2023-02-01T09:38:40;5.30;72.60
9820;DHT22;4949;48.482;9.206;2023-02-01T09:43:56;5.30;72.20
9820;DHT22;4949;48.482;9.206;2023-02-01T09:49:09;5.30;71.60
9820;DHT22;4949;48.482;9.206;2023-02-01T09:54:19;5.30;72.00
9820;DHT22;4949;48.482;9.206;2023-02-01T10:04:47;5.50;70.30
9820;DHT22;4949;48.482;9.206;2023-02-01T10:26:25;5.80;68.20
9820;DHT22;4949;48.482;9.206;2023-02-01T10:31:35;5.80;67.90
9820;DHT22;4949;48.482;9.206;2023-02-01T10:36:42;5.90;68.10
9820;DHT22;4949;48.482;9.206;2023-02-01T10:41:50;6.00;67.20
9820;DHT22;4949;48.482;9.206;2023-02-01T10:46:51;6.00;67.60
9820;DHT22;4949;48.482;9.206;2023-02-01T10:52:20;6.10;67.40
9820;DHT22;4949;48.482;9.206;2023-02-01T10:57:34;6.20;67.20
9820;DHT22;4949;48.482;9.206;2023-02-01T11:02:37;6.20;66.20
9820;DHT22;4949;48.482;9.206;2023-02-01T11:07:49;6.00;66.10
9820;DHT22;4949;48.482;9.206;2023-02-01T11:12:55;6.10;65.90
9820;DHT22;4949;48.482;9.206;2023-02-01T11:18:14;6.10;66.20
9820;DHT22;4949;48.482;9.206;2023-02-01T11:23:22;6.20;67.00
9820;DHT22;4949;48.482;9.206;2023-02-01T11:28:32;6.20;66.90
9820;DHT22;4949;48.482;9.206;2023-02-01T11:33:36;6.20;67.40
9820;DHT22;4949;48.482;9.206;2023-02-01T11:39:23;6.10;67.50
9820;DHT22;4949;48.482;9.206;2023-02-01T11:44:25;6.10;67.50
9820;DHT22;4949;48.482;9.206;2023-02-01T11:49:31;6.10;67.50
9820;DHT22;4949;48.482;9.206;2023-02-01T11:54:37;6.10;67.30
9820;DHT22;4949;48.482;9.206;2023-02-01T12:43:01;6.00;66.40
9820;DHT22;4949;48.482;9.206;2023-02-01T13:04:42;6.00;64.60
9820;DHT22;4949;48.482;9.206;2023-02-01T13:15:42;6.00;65.30
9820;DHT22;4949;48.482;9.206;2023-02-01T13:21:07;6.00;66.00
9820;DHT22;4949;48.482;9.206;2023-02-01T13:26:10;6.00;66.10
9820;DHT22;4949;48.482;9.206;2023-02-01T13:52:39;6.00;66.30
9820;DHT22;4949;48.482;9.206;2023-02-01T13:57:43;6.00;66.30
9820;DHT22;4949;48.482;9.206;2023-02-01T14:02:48;6.00;66.30
9820;DHT22;4949;48.482;9.206;2023-02-01T14:34:31;6.00;66.70
9820;DHT22;4949;48.482;9.206;2023-02-01T14:44:45;5.90;67.30
9820;DHT22;4949;48.482;9.206;2023-02-01T14:55:05;5.90;67.00
9820;DHT22;4949;48.482;9.206;2023-02-01T15:00:25;5.70;67.00
9820;DHT22;4949;48.482;9.206;2023-02-01T15:05:36;5.90;66.90
9820;DHT22;4949;48.482;9.206;2023-02-01T15:10:42;5.90;67.00
9820;DHT22;4949;48.482;9.206;2023-02-01T15:15:59;5.90;66.90
9820;DHT22;4949;48.482;9.206;2023-02-01T15:21:47;5.90;67.40
9820;DHT22;4949;48.482;9.206;2023-02-01T15:26:53;5.90;67.40
9820;DHT22;4949;48.482;9.206;2023-02-01T15:31:54;5.80;67.50
9820;DHT22;4949;48.482;9.206;2023-02-01T15:37:06;5.80;67.40
9820;DHT22;4949;48.482;9.206;2023-02-01T15:42:12;6.00;67.60
9820;DHT22;4949;48.482;9.206;2023-02-01T15:47:27;5.90;67.50
9820;DHT22;4949;48.482;9.206;2023-02-01T15:52:40;5.90;67.60
9820;DHT22;4949;48.482;9.206;2023-02-01T15:57:46;5.70;67.60
9820;DHT22;4949;48.482;9.206;2023-02-01T16:08:10;5.80;67.80
9820;DHT22;4949;48.482;9.206;2023-02-01T16:13:18;5.80;67.70
9820;DHT22;4949;48.482;9.206;2023-02-01T16:18:22;5.90;67.20
9820;DHT22;4949;48.482;9.206;2023-02-01T16:23:23;6.00;66.60
9820;DHT22;4949;48.482;9.206;2023-02-01T16:28:30;6.00;66.30
9820;DHT22;4949;48.482;9.206;2023-02-01T16:33:30;5.80;67.30
9820;DHT22;4949;48.482;9.206;2023-02-01T16:38:31;5.90;66.70
9820;DHT22;4949;48.482;9.206;2023-02-01T16:43:32;5.90;67.00
9820;DHT22;4949;48.482;9.206;2023-02-01T16:48:36;5.80;67.20
9820;DHT22;4949;48.482;9.206;2023-02-01T16:53:40;5.60;66.80
9820;DHT22;4949;48.482;9.206;2023-02-01T16:58:41;5.90;66.70
9820;DHT22;4949;48.482;9.206;2023-02-01T17:03:47;5.90;66.60
9820;DHT22;4949;48.482;9.206;2023-02-01T17:08:51;6.00;66.90
9820;DHT22;4949;48.482;9.206;2023-02-01T17:13:53;5.90;66.20
9820;DHT22;4949;48.482;9.206;2023-02-01T17:18:58;5.90;66.40
9820;DHT22;4949;48.482;9.206;2023-02-01T17:24:00;6.10;66.60
9820;DHT22;4949;48.482;9.206;2023-02-01T17:29:01;5.80;68.20
9820;DHT22;4949;48.482;9.206;2023-02-01T17:34:07;5.70;68.00
9820;DHT22;4949;48.482;9.206;2023-02-01T17:39:09;5.80;67.30
9820;DHT22;4949;48.482;9.206;2023-02-01T17:44:10;5.80;67.50
9820;DHT22;4949;48.482;9.206;2023-02-01T17:49:14;5.90;66.90
9820;DHT22;4949;48.482;9.206;2023-02-01T17:54:15;5.80;67.00
9820;DHT22;4949;48.482;9.206;2023-02-01T17:59:22;5.80;67.50
9820;DHT22;4949;48.482;9.206;2023-02-01T18:04:22;5.90;67.10
9820;DHT22;4949;48.482;9.206;2023-02-01T18:09:23;5.80;66.90
9820;DHT22;4949;48.482;9.206;2023-02-01T18:14:26;5.80;67.20
9820;DHT22;4949;48.482;9.206;2023-02-01T18:19:27;5.70;67.60
9820;DHT22;4949;48.482;9.206;2023-02-01T18:24:31;5.70;67.30
9820;DHT22;4949;48.482;9.206;2023-02-01T18:29:36;5.80;68.10
9820;DHT22;4949;48.482;9.206;2023-02-01T18:34:41;5.60;69.70
9820;DHT22;4949;48.482;9.206;2023-02-01T18:39:44;5.60;69.50
9820;DHT22;4949;48.482;9.206;2023-02-01T18:44:50;5.30;68.90
9820;DHT22;4949;48.482;9.206;2023-02-01T18:49:51;5.60;69.00
9820;DHT22;4949;48.482;9.206;2023-02-01T18:54:51;5.70;69.40
9820;DHT22;4949;48.482;9.206;2023-02-01T18:59:54;5.70;68.70
9820;DHT22;4949;48.482;9.206;2023-02-01T19:04:57;5.60;69.00
9820;DHT22;4949;48.482;9.206;2023-02-01T19:09:58;5.60;69.00
9820;DHT22;4949;48.482;9.206;2023-02-01T19:14:59;5.70;68.40
9820;DHT22;4949;48.482;9.206;2023-02-01T19:20:00;5.60;68.80
9820;DHT22;4949;48.482;9.206;2023-02-01T19:25:02;5.60;69.20
9820;DHT22;4949;48.482;9.206;2023-02-01T19:30:04;5.50;69.80
9820;DHT22;4949;48.482;9.206;2023-02-01T19:35:07;5.50;70.40
9820;DHT22;4949;48.482;9.206;2023-02-01T19:40:14;5.50;70.20
9820;DHT22;4949;48.482;9.206;2023-02-01T19:45:17;5.60;70.20
9820;DHT22;4949;48.482;9.206;2023-02-01T19:50:20;5.60;70.10
9820;DHT22;4949;48.482;9.206;2023-02-01T19:55:24;5.50;70.30
9820;DHT22;4949;48.482;9.206;2023-02-01T20:00:25;5.50;70.00
9820;DHT22;4949;48.482;9.206;2023-02-01T20:05:28;5.50;69.60
9820;DHT22;4949;48.482;9.206;2023-02-01T20:10:29;5.60;69.60
9820;DHT22;4949;48.482;9.206;2023-02-01T20:15:30;5.30;69.10
9820;DHT22;4949;48.482;9.206;2023-02-01T20:20:30;5.60;69.10
9820;DHT22;4949;48.482;9.206;2023-02-01T20:25:31;5.50;69.60
9820;DHT22;4949;48.482;9.206;2023-02-01T20:30:32;5.50;69.30
9820;DHT22;4949;48.482;9.206;2023-02-01T20:35:33;5.60;69.30
9820;DHT22;4949;48.482;9.206;2023-02-01T20:40:36;5.50;69.20
9820;DHT22;4949;48.482;9.206;2023-02-01T20:45:41;5.50;69.60
9820;DHT22;4949;48.482;9.206;2023-02-01T20:50:42;5.50;69.60
9820;DHT22;4949;48.482;9.206;2023-02-01T20:55:43;5.60;69.60
9820;DHT22;4949;48.482;9.206;2023-02-01T21:00:44;5.60;70.10
9820;DHT22;4949;48.482;9.206;2023-02-01T21:05:47;5.50;71.10
9820;DHT22;4949;48.482;9.206;2023-02-01T21:15:58;5.50;70.90
9820;DHT22;4949;48.482;9.206;2023-02-01T21:21:10;5.50;70.70
9820;DHT22;4949;48.482;9.206;2023-02-01T21:26:16;5.50;70.60
9820;DHT22;4949;48.482;9.206;2023-02-01T21:31:23;5.50;70.80
9820;DHT22;4949;48.482;9.206;2023-02-01T21:36:25;5.50;70.30
9820;DHT22;4949;48.482;9.206;2023-02-01T21:41:35;5.50;70.20
9820;DHT22;4949;48.482;9.206;2023-02-01T21:47:12;5.50;70.20
9820;DHT22;4949;48.482;9.206;2023-02-01T21:52:16;5.50;70.10
9820;DHT22;4949;48.482;9.206;2023-02-01T21:57:20;5.50;70.00
9820;DHT22;4949;48.482;9.206;2023-02-01T22:02:20;5.70;69.60
9820;DHT22;4949;48.482;9.206;2023-02-01T22:07:24;5.50;70.90
9820;DHT22;4949;48.482;9.206;2023-02-01T22:12:27;5.60;72.30
9820;DHT22;4949;48.482;9.206;2023-02-01T22:17:30;5.50;73.50
9820;DHT22;4949;48.482;9.206;2023-02-01T22:22:34;5.50;72.70
9820;DHT22;4949;48.482;9.206;2023-02-01T22:27:34;5.50;72.40
9820;DHT22;4949;48.482;9.206;2023-02-01T22:32:35;5.50;72.20
9820;DHT22;4949;48.482;9.206;2023-02-01T22:37:36;5.40;72.90
9820;DHT22;4949;48.482;9.206;2023-02-01T22:42:37;5.40;72.10
9820;DHT22;4949;48.482;9.206;2023-02-01T22:47:38;5.40;71.90
9820;DHT22;4949;48.482;9.206;2023-02-01T22:52:38;5.40;72.20
9820;DHT22;4949;48.482;9.206;2023-02-01T22:57:39;5.40;71.80
9820;DHT22;4949;48.482;9.206;2023-02-01T23:02:43;5.40;71.50
9820;DHT22;4949;48.482;9.206;2023-02-01T23:07:49;5.40;71.40
9820;DHT22;4949;48.482;9.206;2023-02-01T23:12:52;5.50;70.80
9820;DHT22;4949;48.482;9.206;2023-02-01T23:17:53;5.40;71.60
9820;DHT22;4949;48.482;9.206;2023-02-01T23:22:54;5.50;72.80
9820;DHT22;4949;48.482;9.206;2023-02-01T23:28:00;5.40;73.30
9820;DHT22;4949;48.482;9.206;2023-02-01T23:33:00;5.30;73.30
9820;DHT22;4949;48.482;9.206;2023-02-01T23:38:01;5.30;73.10
9820;DHT22;4949;48.482;9.206;2023-02-01T23:43:02;5.40;73.20
9820;DHT22;4949;48.482;9.206;2023-02-01T23:48:21;5.30;73.00
9820;DHT22;4949;48.482;9.206;2023-02-01T23:53:22;5.40;72.50
9820;DHT22;4949;48.482;9.206;2023-02-01T23:58:23;5.40;72.40
